Prairie City, Illinois
Current Conditions -  °F | °C
As of 12:55 PM on Sunday 23 Nov 2014 (Local Time) from KMQB Reporting Station
Moderate Rain Moderate Rain  
Wind Chill: 53°   Ceiling: 500
Heat Index: 53°   Visibility: 1.5mi
Dew Point: 52°   Wind: 12mph
Humidity: 97%   Direction: 150°SSE
Pressure: 29.48"   Gusts: NA
Location:  40.62°N, 90.46°W
Report Text: KMQB 231855Z AUTO 15010KT 1 1/2SM RA OVC005 12/11 A2948 RMK AO2 P0007 T01150111
Loading
Personal Weather Stations






























Interactive Weather Map New forecast layout! Learn more

10-Day Weather Forecast

Advertisements
Track Severe Weather on mobile